HUR weather

Inmobiliaria Montes Urales 770 Helipad
Miguel Hidalgo, Distrito Federal, Mexico

Public forecast

Using degrees Celsius for public forecast. Weather courtesy of forecast.io.

METAR (pilot weather report)

Closest report is Licenciado Benito Juarez International Airport, 7.5 nm (13.9 km) E. Retrieved 2019/06/24 20:51 UTC (33 minutes ago):

MMMX 242051Z 09007KT 8SM SCT020TCU BKN080 OVC220 22/10 A3025 NOSIG RMK SLP060 57015 951 8/263 HZY BINOVC DSTN CB E

TAF (pilot weather forecast)

Closest forecast is Licenciado Benito Juarez International Airport, 7.5 nm (13.9 km) E. Retrieved 2019/06/24 18:09 UTC (3 hours ago):

TAF MMMX 241706Z 2418/2524 13015KT P6SM -RA BKN015CB OVC080 TX24/2420Z TN15/2512Z TEMPO 2420/2424 3SM TSRA FM250100 20010KT 5SM -RA TEMPO 2501/2505 4SM RA FM250900 00000KT 4SM HZ VC RA OVC015 FM251400 00000KT 5SM HZ SCT015 BKN030 OVC100 FM251700 16010KT P6SM SCT030 BKN100 BKN250